createdAt,value
2022-07-28T00:00:29.877Z,48.14
2022-07-28T00:03:31.862Z,47.89
2022-07-28T00:06:34.538Z,48.24
2022-07-28T00:09:38.334Z,48.32
2022-07-28T00:12:40.385Z,48.54
2022-07-28T00:15:43.535Z,48.67
2022-07-28T00:18:46.118Z,48.96
2022-07-28T00:21:49.246Z,49.20
2022-07-28T00:24:52.336Z,49.47
2022-07-28T00:27:58.129Z,49.40
2022-07-28T00:31:05.407Z,49.53
2022-07-28T00:34:10.097Z,49.65
2022-07-28T00:37:14.562Z,49.72
2022-07-28T00:40:19.040Z,49.74
2022-07-28T00:43:21.383Z,49.79
2022-07-28T00:46:24.865Z,49.69
2022-07-28T00:49:29.364Z,49.98
2022-07-28T00:52:32.909Z,50.38
2022-07-28T00:56:03.536Z,50.29
2022-07-28T00:59:02.537Z,50.32
2022-07-28T01:02:05.472Z,50.28
2022-07-28T01:05:08.873Z,50.67
2022-07-28T01:08:15.258Z,51.24
2022-07-28T01:11:21.381Z,51.10
2022-07-28T01:14:27.388Z,51.28
2022-07-28T01:17:32.815Z,51.43
2022-07-28T01:20:42.073Z,51.65
2022-07-28T01:23:47.803Z,52.09
2022-07-28T01:27:11.900Z,52.24
2022-07-28T01:30:27.874Z,52.44
2022-07-28T01:33:42.244Z,53.06
2022-07-28T01:37:00.276Z,53.29
2022-07-28T01:40:05.339Z,53.92
2022-07-28T01:43:09.607Z,54.62
2022-07-28T01:46:16.925Z,55.09
2022-07-28T01:49:25.249Z,55.61
2022-07-28T01:52:28.627Z,55.74
2022-07-28T01:55:32.306Z,55.88
2022-07-28T01:58:37.876Z,56.30
2022-07-28T02:01:46.706Z,56.93
2022-07-28T02:04:54.819Z,57.50
2022-07-28T02:07:59.468Z,57.57
2022-07-28T02:11:32.701Z,58.25
2022-07-28T02:14:40.027Z,58.80
2022-07-28T02:17:45.499Z,58.76
2022-07-28T02:20:56.816Z,58.53
2022-07-28T02:24:00.283Z,58.34
2022-07-28T02:27:28.050Z,59.13
2022-07-28T02:30:56.569Z,58.36
2022-07-28T02:34:02.193Z,58.84
2022-07-28T02:37:04.982Z,59.16
2022-07-28T02:40:10.401Z,59.55
2022-07-28T02:43:16.136Z,60.20
2022-07-28T02:46:30.943Z,60.42
2022-07-28T02:49:35.893Z,60.41
2022-07-28T02:52:39.455Z,61.00
2022-07-28T02:55:51.044Z,60.94
2022-07-28T02:58:55.653Z,61.19
2022-07-28T03:01:59.583Z,61.71
2022-07-28T03:05:11.283Z,61.81
2022-07-28T03:08:24.167Z,61.73
2022-07-28T03:11:35.302Z,60.69
2022-07-28T03:14:45.764Z,60.30
2022-07-28T03:17:48.350Z,59.50
2022-07-28T03:20:52.140Z,59.78
2022-07-28T03:23:54.796Z,59.69
2022-07-28T03:27:15.533Z,59.20
2022-07-28T03:30:27.480Z,59.28
2022-07-28T03:33:29.598Z,59.15
2022-07-28T03:36:41.195Z,59.30
2022-07-28T03:39:48.649Z,60.02
2022-07-28T03:42:55.411Z,60.15
2022-07-28T03:45:57.751Z,60.82
2022-07-28T03:49:00.474Z,60.36
2022-07-28T03:52:03.043Z,59.56
2022-07-28T03:55:15.863Z,59.87
2022-07-28T03:58:19.320Z,60.37
2022-07-28T04:01:21.484Z,59.55
2022-07-28T04:04:23.987Z,59.15
2022-07-28T04:07:25.990Z,59.29
2022-07-28T04:10:28.677Z,60.23
2022-07-28T04:13:37.846Z,59.16
2022-07-28T04:16:40.385Z,58.03
2022-07-28T04:19:42.464Z,59.09
2022-07-28T04:22:48.217Z,58.96
2022-07-28T04:25:50.346Z,57.33
2022-07-28T04:28:57.552Z,56.46
2022-07-28T04:32:05.380Z,56.82
2022-07-28T04:35:14.047Z,57.10
2022-07-28T04:38:25.967Z,56.40
2022-07-28T04:41:28.874Z,55.87
2022-07-28T04:44:31.121Z,57.08
2022-07-28T04:47:36.696Z,55.93
2022-07-28T04:50:51.269Z,56.07
2022-07-28T04:53:53.472Z,56.42
2022-07-28T04:56:55.786Z,56.11
2022-07-28T04:59:58.643Z,55.98
2022-07-28T05:03:02.937Z,56.18
2022-07-28T05:06:05.371Z,55.38
2022-07-28T05:09:10.529Z,55.18
2022-07-28T05:12:12.494Z,55.58
2022-07-28T05:15:14.688Z,57.20
2022-07-28T05:18:16.615Z,57.30
2022-07-28T05:21:22.374Z,56.53
2022-07-28T05:24:26.225Z,56.73
2022-07-28T05:27:30.157Z,55.89
2022-07-28T05:30:37.341Z,55.10
2022-07-28T05:33:39.510Z,54.66
2022-07-28T05:36:42.573Z,53.52
2022-07-28T05:39:46.114Z,53.30
2022-07-28T05:42:50.349Z,53.67
2022-07-28T05:45:55.291Z,53.09
2022-07-28T05:48:57.653Z,53.67
2022-07-28T05:52:10.388Z,53.66
2022-07-28T05:55:15.090Z,53.59
2022-07-28T05:58:25.195Z,53.28
2022-07-28T06:01:28.488Z,52.62
2022-07-28T06:04:31.128Z,54.10
2022-07-28T06:07:42.702Z,52.76
2022-07-28T06:11:11.433Z,51.86
2022-07-28T06:14:15.305Z,51.35
2022-07-28T06:17:17.729Z,50.35
2022-07-28T06:20:22.883Z,51.22
2022-07-28T06:23:25.117Z,49.57
2022-07-28T06:26:27.526Z,47.64
2022-07-28T06:29:30.265Z,47.83
2022-07-28T06:32:37.166Z,47.79
2022-07-28T06:35:47.970Z,46.98
2022-07-28T06:38:54.004Z,48.35
2022-07-28T06:41:56.703Z,49.03
2022-07-28T06:45:00.030Z,48.87
2022-07-28T06:48:11.814Z,46.91
2022-07-28T06:51:19.342Z,46.59
2022-07-28T06:54:23.132Z,46.81
2022-07-28T06:57:28.086Z,47.16
2022-07-28T07:00:35.632Z,47.41
2022-07-28T07:03:42.579Z,48.11
2022-07-28T07:06:45.381Z,46.36
2022-07-28T07:09:49.235Z,46.46
2022-07-28T07:12:51.741Z,46.95
2022-07-28T07:15:53.698Z,45.58
2022-07-28T07:18:56.186Z,45.83
2022-07-28T07:22:01.456Z,44.58
2022-07-28T07:25:12.844Z,45.17
2022-07-28T07:28:24.261Z,46.02
2022-07-28T07:31:29.753Z,46.28
2022-07-28T07:34:31.956Z,44.35
2022-07-28T07:37:34.034Z,42.93
2022-07-28T07:40:39.594Z,39.46
2022-07-28T07:43:47.820Z,34.69
2022-07-28T07:46:52.075Z,36.69
2022-07-28T07:49:54.466Z,36.95
2022-07-28T07:52:57.173Z,37.84
2022-07-28T07:55:59.418Z,39.18
2022-07-28T07:59:02.782Z,37.97
2022-07-28T08:02:05.354Z,38.59
2022-07-28T08:05:08.943Z,38.66
2022-07-28T08:08:12.167Z,38.18
2022-07-28T08:11:14.766Z,38.85
2022-07-28T08:14:20.492Z,38.50
2022-07-28T08:17:26.022Z,39.73
2022-07-28T08:20:28.857Z,38.98
2022-07-28T08:23:31.542Z,38.93
2022-07-28T08:26:33.562Z,36.97
2022-07-28T08:29:36.327Z,35.22
2022-07-28T08:32:38.430Z,34.41
2022-07-28T08:35:43.704Z,35.25
2022-07-28T08:38:46.043Z,35.73
2022-07-28T08:41:57.710Z,35.60
2022-07-28T08:45:05.289Z,35.13
2022-07-28T08:48:10.363Z,34.73
2022-07-28T08:51:12.987Z,34.66
2022-07-28T08:54:20.731Z,35.67
2022-07-28T08:57:26.817Z,34.44
2022-07-28T09:00:30.315Z,34.79
2022-07-28T09:03:32.709Z,34.53
2022-07-28T09:06:35.705Z,33.95
2022-07-28T09:09:39.478Z,32.90
2022-07-28T09:12:42.063Z,32.88
2022-07-28T09:15:47.654Z,33.50
2022-07-28T09:18:50.428Z,33.45
2022-07-28T09:21:53.960Z,33.82
2022-07-28T09:24:58.249Z,32.89
2022-07-28T09:28:10.359Z,32.27
2022-07-28T09:31:14.003Z,32.67
2022-07-28T09:34:18.501Z,31.52
2022-07-28T09:37:27.024Z,32.41
2022-07-28T09:40:30.466Z,31.93
2022-07-28T09:43:34.276Z,30.74
2022-07-28T09:46:36.856Z,31.24
2022-07-28T09:49:44.465Z,32.37
2022-07-28T09:52:46.948Z,30.83
2022-07-28T09:55:59.712Z,30.19
2022-07-28T09:59:03.976Z,30.33
2022-07-28T10:02:09.380Z,30.79
2022-07-28T10:05:13.608Z,30.67
2022-07-28T10:08:15.895Z,30.02
2022-07-28T10:11:20.543Z,29.81
2022-07-28T10:14:32.119Z,29.41
2022-07-28T10:17:34.805Z,28.86
2022-07-28T10:20:37.274Z,29.10
2022-07-28T10:23:40.046Z,29.17
2022-07-28T10:26:45.799Z,29.25
2022-07-28T10:29:51.608Z,29.85
2022-07-28T10:32:54.826Z,29.21
2022-07-28T10:35:58.224Z,29.38
2022-07-28T10:39:03.803Z,29.22
2022-07-28T10:42:09.684Z,30.24
2022-07-28T10:45:13.152Z,28.71
2022-07-28T10:48:15.899Z,28.80
2022-07-28T10:51:21.098Z,28.53
2022-07-28T10:54:27.471Z,29.52
2022-07-28T10:57:31.057Z,28.43
2022-07-28T11:00:54.563Z,27.80
2022-07-28T11:03:57.385Z,29.30
2022-07-28T11:07:12.792Z,28.25
2022-07-28T11:10:16.085Z,28.17
2022-07-28T11:13:37.077Z,27.76
2022-07-28T11:16:43.550Z,27.31
2022-07-28T11:20:16.339Z,27.55
2022-07-28T11:23:30.411Z,27.47
2022-07-28T11:26:37.262Z,27.75
2022-07-28T11:29:47.481Z,27.09
2022-07-28T11:32:55.745Z,28.60
2022-07-28T11:35:59.316Z,28.93
2022-07-28T11:39:31.074Z,28.93
2022-07-28T11:42:45.746Z,29.33
2022-07-28T11:45:55.626Z,29.56
2022-07-28T11:49:14.967Z,27.65
2022-07-28T11:52:21.042Z,27.44
2022-07-28T11:55:49.161Z,26.59
2022-07-28T11:58:56.101Z,26.83
2022-07-28T12:01:58.325Z,26.93
2022-07-28T12:05:05.978Z,26.05
2022-07-28T12:08:08.517Z,25.44
2022-07-28T12:11:10.787Z,25.70
2022-07-28T12:14:14.781Z,26.10
2022-07-28T12:17:17.378Z,26.94
2022-07-28T12:20:20.617Z,26.94
2022-07-28T12:23:28.950Z,27.48
2022-07-28T12:26:42.706Z,26.89
2022-07-28T12:29:55.883Z,27.13
2022-07-28T12:32:57.839Z,27.05
2022-07-28T12:36:01.125Z,27.87
2022-07-28T12:39:07.311Z,27.44
2022-07-28T12:42:15.114Z,26.82
2022-07-28T12:45:17.464Z,25.56
2022-07-28T12:48:20.470Z,26.61
2022-07-28T12:51:31.790Z,25.45
2022-07-28T12:54:35.583Z,25.41
2022-07-28T12:57:51.625Z,26.38
2022-07-28T13:00:54.730Z,27.09
2022-07-28T13:03:57.127Z,26.88
2022-07-28T13:06:59.410Z,26.59
2022-07-28T13:10:11.459Z,26.27
2022-07-28T13:13:14.692Z,26.32
2022-07-28T13:16:19.029Z,26.01
2022-07-28T13:19:21.703Z,26.50
2022-07-28T13:22:27.287Z,26.80
2022-07-28T13:25:29.842Z,27.39
2022-07-28T13:28:32.445Z,27.27
2022-07-28T13:31:37.969Z,27.16
2022-07-28T13:34:40.064Z,26.78
2022-07-28T13:37:42.465Z,26.46
2022-07-28T13:40:45.240Z,26.32
2022-07-28T13:43:49.336Z,26.03
2022-07-28T13:46:53.651Z,26.02
2022-07-28T13:49:57.615Z,26.91
2022-07-28T13:53:00.399Z,26.45
2022-07-28T13:56:04.297Z,26.31
2022-07-28T13:59:07.297Z,26.64
2022-07-28T14:02:15.461Z,27.35
2022-07-28T14:05:18.399Z,27.13
2022-07-28T14:08:21.444Z,26.38
2022-07-28T14:11:27.893Z,26.95
2022-07-28T14:14:30.761Z,26.78
2022-07-28T14:17:43.660Z,26.83
2022-07-28T14:20:47.430Z,26.71
2022-07-28T14:23:50.217Z,26.84
2022-07-28T14:26:52.805Z,26.51
2022-07-28T14:29:54.912Z,26.38
2022-07-28T14:33:00.582Z,27.76
2022-07-28T14:36:02.895Z,27.78
2022-07-28T14:39:10.518Z,27.32
2022-07-28T14:42:14.612Z,27.37
2022-07-28T14:45:17.200Z,27.88
2022-07-28T14:48:19.359Z,28.77
2022-07-28T14:51:21.530Z,29.13
2022-07-28T14:54:24.196Z,28.72
2022-07-28T14:57:52.208Z,29.35
2022-07-28T15:00:49.097Z,29.76
2022-07-28T15:03:51.908Z,30.20
2022-07-28T15:06:54.615Z,30.06
2022-07-28T15:09:56.908Z,30.32
2022-07-28T15:12:58.905Z,30.51
2022-07-28T15:16:01.811Z,30.52
2022-07-28T15:19:04.665Z,31.05
2022-07-28T15:22:06.941Z,31.83
2022-07-28T15:25:09.480Z,31.44
2022-07-28T15:28:12.679Z,31.45
2022-07-28T15:31:21.361Z,30.62
2022-07-28T15:34:26.270Z,30.10
2022-07-28T15:37:28.610Z,29.97
2022-07-28T15:40:31.268Z,29.61
2022-07-28T15:43:33.755Z,29.94
2022-07-28T15:46:36.949Z,28.97
2022-07-28T15:49:39.623Z,29.15
2022-07-28T15:52:42.000Z,29.49
2022-07-28T15:55:48.931Z,28.93
2022-07-28T15:58:53.119Z,29.65
2022-07-28T16:01:55.656Z,29.82
2022-07-28T16:04:58.064Z,30.43
2022-07-28T16:08:00.642Z,30.58
2022-07-28T16:11:05.779Z,30.66
2022-07-28T16:14:08.178Z,30.11
2022-07-28T16:17:11.120Z,30.02
2022-07-28T16:20:13.276Z,30.08
2022-07-28T16:23:16.210Z,30.60
2022-07-28T16:26:18.692Z,30.10
2022-07-28T16:29:21.066Z,29.98
2022-07-28T16:32:23.232Z,30.73
2022-07-28T16:35:26.026Z,30.85
2022-07-28T16:38:28.485Z,30.33
2022-07-28T16:41:47.079Z,30.90
2022-07-28T16:44:51.167Z,31.13
2022-07-28T16:47:53.924Z,30.81
2022-07-28T16:50:56.834Z,31.04
2022-07-28T16:54:00.206Z,31.07
2022-07-28T16:57:03.115Z,31.58
2022-07-28T17:00:08.868Z,31.40
2022-07-28T17:03:14.331Z,31.24
2022-07-28T17:06:16.941Z,31.38
2022-07-28T17:09:19.567Z,31.75
2022-07-28T17:12:22.053Z,31.95
2022-07-28T17:15:24.874Z,32.33
2022-07-28T17:18:27.416Z,32.71
2022-07-28T17:21:30.011Z,32.10
2022-07-28T17:24:32.355Z,32.58
2022-07-28T17:27:38.197Z,34.37
2022-07-28T17:30:41.905Z,33.98
2022-07-28T17:33:44.185Z,33.93
2022-07-28T17:36:48.968Z,33.87
2022-07-28T17:39:51.969Z,34.14
2022-07-28T17:42:54.815Z,34.92
2022-07-28T17:45:57.058Z,35.11
2022-07-28T17:49:01.739Z,35.48
2022-07-28T17:52:06.481Z,35.93
2022-07-28T17:55:28.639Z,36.40
2022-07-28T17:58:34.707Z,36.86
2022-07-28T18:01:45.001Z,37.62
2022-07-28T18:04:48.296Z,37.78
2022-07-28T18:07:54.811Z,37.95
2022-07-28T18:11:01.721Z,38.72
2022-07-28T18:14:05.497Z,38.76
2022-07-28T18:17:09.833Z,39.59
2022-07-28T18:20:12.144Z,39.44
2022-07-28T18:23:16.034Z,39.59
2022-07-28T18:26:18.408Z,39.65
2022-07-28T18:29:21.769Z,40.52
2022-07-28T18:32:24.355Z,40.38
2022-07-28T18:35:26.834Z,40.94
2022-07-28T18:38:29.151Z,40.92
2022-07-28T18:41:34.459Z,41.11
2022-07-28T18:44:48.741Z,41.49
2022-07-28T18:47:51.582Z,41.52
2022-07-28T18:50:54.036Z,41.65
2022-07-28T18:53:56.243Z,42.00
2022-07-28T18:56:58.454Z,41.62
2022-07-28T19:00:00.743Z,41.73
2022-07-28T19:03:05.276Z,42.31
2022-07-28T19:06:07.847Z,42.64
2022-07-28T19:09:11.767Z,42.78
2022-07-28T19:12:14.943Z,43.13
2022-07-28T19:15:18.534Z,43.15
2022-07-28T19:18:20.569Z,42.66
2022-07-28T19:21:24.947Z,42.74
2022-07-28T19:24:30.539Z,42.73
2022-07-28T19:27:38.212Z,42.68
2022-07-28T19:30:40.240Z,42.99
2022-07-28T19:33:44.141Z,42.83
2022-07-28T19:36:47.140Z,43.57
2022-07-28T19:39:49.481Z,43.41
2022-07-28T19:42:51.611Z,43.61
2022-07-28T19:45:57.828Z,44.41
2022-07-28T19:49:00.739Z,44.37
2022-07-28T19:52:03.135Z,43.95
2022-07-28T19:55:06.460Z,43.01
2022-07-28T19:58:09.868Z,42.86
2022-07-28T20:01:12.141Z,42.67
2022-07-28T20:04:16.676Z,42.45
2022-07-28T20:07:19.192Z,42.39
2022-07-28T20:10:24.111Z,41.96
2022-07-28T20:13:26.299Z,42.22
2022-07-28T20:16:30.132Z,42.03
2022-07-28T20:19:41.783Z,42.39
2022-07-28T20:22:44.245Z,42.40
2022-07-28T20:25:46.909Z,42.34
2022-07-28T20:28:49.571Z,41.78
2022-07-28T20:31:51.840Z,41.68
2022-07-28T20:34:55.140Z,41.75
2022-07-28T20:38:00.758Z,41.56
2022-07-28T20:41:02.868Z,41.80
2022-07-28T20:44:27.793Z,41.93
2022-07-28T20:47:34.236Z,42.01
2022-07-28T20:50:37.721Z,42.33
2022-07-28T20:53:39.655Z,42.36
2022-07-28T20:56:44.621Z,42.53
2022-07-28T20:59:50.392Z,42.78
2022-07-28T21:02:55.830Z,42.76
2022-07-28T21:06:01.505Z,43.07
2022-07-28T21:09:06.404Z,42.77
2022-07-28T21:12:08.819Z,42.73
2022-07-28T21:15:11.285Z,43.16
2022-07-28T21:18:15.565Z,43.24
2022-07-28T21:21:17.666Z,43.48
2022-07-28T21:24:19.631Z,43.65
2022-07-28T21:27:23.626Z,43.77
2022-07-28T21:30:27.791Z,43.75
2022-07-28T21:33:33.732Z,43.77
2022-07-28T21:36:36.263Z,44.02
2022-07-28T21:39:38.665Z,43.91
2022-07-28T21:42:41.090Z,43.86
2022-07-28T21:45:46.968Z,44.32
2022-07-28T21:48:57.764Z,44.69
2022-07-28T21:52:00.294Z,44.85
2022-07-28T21:55:03.208Z,45.23
2022-07-28T21:58:06.125Z,45.82
2022-07-28T22:01:08.477Z,46.02
2022-07-28T22:04:10.552Z,46.42
2022-07-28T22:07:15.588Z,46.24
2022-07-28T22:10:24.533Z,46.32
2022-07-28T22:13:29.963Z,46.64
2022-07-28T22:16:33.449Z,46.14
2022-07-28T22:19:36.119Z,46.00
2022-07-28T22:22:38.276Z,46.16
2022-07-28T22:25:40.727Z,46.46
2022-07-28T22:28:43.373Z,47.04
2022-07-28T22:31:59.081Z,47.29
2022-07-28T22:35:02.821Z,47.31
2022-07-28T22:38:08.205Z,47.66
2022-07-28T22:41:11.184Z,47.80
2022-07-28T22:44:13.611Z,47.92
2022-07-28T22:47:16.191Z,48.00
2022-07-28T22:50:18.389Z,48.16
2022-07-28T22:53:21.190Z,48.44
2022-07-28T22:56:28.194Z,48.79
2022-07-28T22:59:39.939Z,48.53
2022-07-28T23:02:48.992Z,48.72
2022-07-28T23:05:56.329Z,48.59
2022-07-28T23:08:58.747Z,48.81
2022-07-28T23:12:00.922Z,48.56
2022-07-28T23:15:04.716Z,48.72
2022-07-28T23:18:14.332Z,49.05
2022-07-28T23:21:19.706Z,49.16
2022-07-28T23:24:27.001Z,49.15
2022-07-28T23:27:35.244Z,48.87
2022-07-28T23:30:37.984Z,48.91
2022-07-28T23:33:56.033Z,48.93
2022-07-28T23:37:04.546Z,48.88
2022-07-28T23:40:06.939Z,48.82
2022-07-28T23:43:13.857Z,48.11
2022-07-28T23:46:16.047Z,48.32
2022-07-28T23:49:25.866Z,48.56
2022-07-28T23:52:34.202Z,48.33
2022-07-28T23:55:37.259Z,48.22
2022-07-28T23:58:39.571Z,48.40
